createdAt,value
2019-04-07T00:00:29.415Z,74.30
2019-04-07T00:03:00.223Z,74.10
2019-04-07T00:05:31.051Z,69.73
2019-04-07T00:08:02.776Z,66.90
2019-04-07T00:10:34.264Z,64.83
2019-04-07T00:13:05.304Z,69.00
2019-04-07T00:15:37.756Z,64.20
2019-04-07T00:18:10.439Z,68.57
2019-04-07T00:20:42.029Z,63.10
2019-04-07T00:23:14.811Z,60.83
2019-04-07T00:25:45.969Z,62.83
2019-04-07T00:28:20.508Z,66.50
2019-04-07T00:30:55.462Z,62.37
2019-04-07T00:33:26.261Z,64.63
2019-04-07T00:35:56.965Z,66.97
2019-04-07T00:38:28.283Z,65.07
2019-04-07T00:40:59.238Z,62.03
2019-04-07T00:43:30.036Z,64.80
2019-04-07T00:46:02.417Z,65.63
2019-04-07T00:48:33.964Z,61.83
2019-04-07T00:51:05.143Z,63.77
2019-04-07T00:53:36.548Z,64.03
2019-04-07T00:56:09.298Z,60.63
2019-04-07T00:58:39.930Z,62.93
2019-04-07T01:01:12.277Z,61.23
2019-04-07T01:03:43.049Z,61.90
2019-04-07T01:06:14.070Z,61.43
2019-04-07T01:08:44.851Z,65.90
2019-04-07T01:11:16.762Z,65.23
2019-04-07T01:13:47.415Z,61.50
2019-04-07T01:16:17.920Z,62.00
2019-04-07T01:18:49.117Z,57.47
2019-04-07T01:21:20.845Z,62.70
2019-04-07T01:23:53.222Z,57.37
2019-04-07T01:26:23.908Z,55.47
2019-04-07T01:28:55.684Z,57.50
2019-04-07T01:31:28.624Z,55.20
2019-04-07T01:34:00.031Z,54.27
2019-04-07T01:36:30.536Z,55.67
2019-04-07T01:39:01.484Z,53.40
2019-04-07T01:41:48.391Z,58.57
2019-04-07T01:44:37.886Z,57.87
2019-04-07T01:47:31.205Z,58.40
2019-04-07T01:50:23.256Z,52.60
2019-04-07T01:53:15.530Z,51.30
2019-04-07T01:56:03.500Z,51.90
2019-04-07T01:59:12.092Z,49.77
2019-04-07T02:02:02.069Z,51.13
2019-04-07T02:04:55.464Z,50.87
2019-04-07T02:07:43.654Z,52.43
2019-04-07T02:10:30.688Z,50.43
2019-04-07T02:13:16.540Z,50.70
2019-04-07T02:16:12.327Z,51.17
2019-04-07T02:18:56.343Z,49.30
2019-04-07T02:21:40.739Z,47.53
2019-04-07T02:24:29.900Z,49.30
2019-04-07T02:27:23.988Z,48.70
2019-04-07T02:30:14.526Z,47.70
2019-04-07T02:32:54.419Z,47.47
2019-04-07T02:35:45.032Z,55.33
2019-04-07T02:38:34.573Z,48.83
2019-04-07T02:41:16.310Z,48.17
2019-04-07T02:44:01.651Z,49.43
2019-04-07T02:46:50.292Z,49.97
2019-04-07T02:49:39.297Z,54.53
2019-04-07T02:52:27.981Z,51.70
2019-04-07T02:55:20.019Z,51.03
2019-04-07T02:58:13.592Z,58.67
2019-04-07T03:01:04.775Z,58.23
2019-04-07T03:04:03.444Z,57.73
2019-04-07T03:07:02.706Z,54.37
2019-04-07T03:09:48.230Z,57.13
2019-04-07T03:12:38.071Z,57.73
2019-04-07T03:15:32.738Z,58.20
2019-04-07T03:18:23.786Z,61.60
2019-04-07T03:21:26.817Z,55.73
2019-04-07T03:24:19.510Z,57.07
2019-04-07T03:27:08.089Z,58.77
2019-04-07T03:29:59.017Z,61.00
2019-04-07T03:32:46.719Z,57.37
2019-04-07T03:35:41.120Z,63.23
2019-04-07T03:38:41.127Z,65.13
2019-04-07T03:41:43.999Z,58.73
2019-04-07T03:44:21.401Z,59.10
2019-04-07T03:47:10.104Z,62.97
2019-04-07T03:49:49.604Z,63.03
2019-04-07T03:52:32.130Z,63.57
2019-04-07T03:55:36.922Z,60.17
2019-04-07T03:58:25.904Z,60.10
2019-04-07T04:01:33.666Z,66.27
2019-04-07T04:04:34.150Z,61.70
2019-04-07T04:07:29.977Z,59.83
2019-04-07T04:10:08.432Z,59.10
2019-04-07T04:12:45.759Z,63.67
2019-04-07T04:15:36.393Z,62.17
2019-04-07T04:18:08.522Z,61.60
2019-04-07T04:20:41.005Z,65.23
2019-04-07T04:23:12.668Z,65.63
2019-04-07T04:25:43.428Z,60.83
2019-04-07T04:28:16.244Z,65.83
2019-04-07T04:30:47.015Z,66.37
2019-04-07T04:33:20.229Z,64.33
2019-04-07T04:35:51.721Z,64.67
2019-04-07T04:38:22.382Z,71.87
2019-04-07T04:40:53.265Z,73.67
2019-04-07T04:43:25.485Z,72.70
2019-04-07T04:45:56.834Z,68.37
2019-04-07T04:48:27.884Z,69.80
2019-04-07T04:50:58.673Z,64.23
2019-04-07T04:53:32.095Z,66.83
2019-04-07T04:56:04.070Z,76.07
2019-04-07T04:58:34.951Z,70.50
2019-04-07T05:01:06.335Z,73.80
2019-04-07T05:03:37.219Z,76.60
2019-04-07T05:06:09.096Z,82.93
2019-04-07T05:08:40.058Z,92.90
2019-04-07T05:11:12.509Z,89.57
2019-04-07T05:13:45.348Z,81.30
2019-04-07T05:16:16.360Z,95.53
2019-04-07T05:18:46.933Z,96.80
2019-04-07T05:21:17.463Z,86.67
2019-04-07T05:23:48.784Z,77.57
2019-04-07T05:26:20.292Z,79.70
2019-04-07T05:28:50.848Z,80.83
2019-04-07T05:31:21.490Z,76.80
2019-04-07T05:33:55.347Z,82.73
2019-04-07T05:36:26.855Z,81.43
2019-04-07T05:38:58.263Z,77.37
2019-04-07T05:41:30.458Z,86.43
2019-04-07T05:44:03.549Z,90.67
2019-04-07T05:46:38.544Z,81.57
2019-04-07T05:49:07.633Z,80.73
2019-04-07T05:51:38.307Z,95.43
2019-04-07T05:54:16.398Z,84.70
2019-04-07T05:56:46.948Z,90.67
2019-04-07T05:59:17.680Z,82.73
2019-04-07T06:01:50.697Z,79.53
2019-04-07T06:04:20.711Z,80.33
2019-04-07T06:06:54.867Z,79.13
2019-04-07T06:09:26.407Z,82.53
2019-04-07T06:11:59.879Z,73.47
2019-04-07T06:14:30.813Z,73.10
2019-04-07T06:17:04.832Z,69.67
2019-04-07T06:19:39.513Z,65.50
2019-04-07T06:22:08.645Z,66.93
2019-04-07T06:24:40.700Z,66.83
2019-04-07T06:27:13.821Z,65.77
2019-04-07T06:29:44.708Z,61.27
2019-04-07T06:32:15.626Z,61.70
2019-04-07T06:34:48.999Z,56.63
2019-04-07T06:37:25.862Z,59.73
2019-04-07T06:39:54.819Z,52.43
2019-04-07T06:42:26.705Z,45.53
2019-04-07T06:44:59.793Z,55.87
2019-04-07T06:47:49.769Z,48.97
2019-04-07T06:50:47.747Z,51.63
2019-04-07T06:53:23.594Z,47.60
2019-04-07T06:56:03.045Z,49.83
2019-04-07T06:58:51.561Z,48.67
2019-04-07T07:01:41.802Z,44.10
2019-04-07T07:04:31.345Z,42.90
2019-04-07T07:07:30.128Z,43.13
2019-04-07T07:10:35.559Z,46.97
2019-04-07T07:13:32.396Z,46.47
2019-04-07T07:16:20.807Z,51.33
2019-04-07T07:19:09.497Z,47.17
2019-04-07T07:21:46.830Z,41.50
2019-04-07T07:24:22.704Z,39.30
2019-04-07T07:26:50.493Z,38.93
2019-04-07T07:29:26.643Z,42.07
2019-04-07T07:32:03.123Z,41.17
2019-04-07T07:34:30.452Z,37.63
2019-04-07T07:37:01.246Z,40.13
2019-04-07T07:39:31.913Z,38.63
2019-04-07T07:42:03.959Z,37.60
2019-04-07T07:44:38.196Z,42.43
2019-04-07T07:47:09.097Z,38.30
2019-04-07T07:49:40.961Z,36.50
2019-04-07T07:52:12.591Z,39.60
2019-04-07T07:54:45.842Z,35.20
2019-04-07T07:57:16.318Z,35.23
2019-04-07T07:59:47.290Z,37.67
2019-04-07T08:02:19.949Z,39.30
2019-04-07T08:04:51.083Z,35.50
2019-04-07T08:07:22.656Z,34.67
2019-04-07T08:09:56.023Z,35.00
2019-04-07T08:12:27.158Z,36.67
2019-04-07T08:14:58.714Z,32.33
2019-04-07T08:17:39.160Z,31.27
2019-04-07T08:20:14.256Z,30.60
2019-04-07T08:22:45.051Z,29.57
2019-04-07T08:25:16.331Z,32.13
2019-04-07T08:27:47.670Z,30.03
2019-04-07T08:30:18.537Z,29.37
2019-04-07T08:32:50.079Z,27.07
2019-04-07T08:35:22.217Z,30.90
2019-04-07T08:37:53.437Z,27.33
2019-04-07T08:40:26.334Z,29.90
2019-04-07T08:42:57.293Z,28.23
2019-04-07T08:45:30.059Z,26.57
2019-04-07T08:48:00.762Z,26.67
2019-04-07T08:50:32.120Z,27.53
2019-04-07T08:53:03.180Z,26.23
2019-04-07T08:55:34.469Z,25.20
2019-04-07T08:58:05.867Z,26.17
2019-04-07T09:00:41.593Z,21.60
2019-04-07T09:03:17.172Z,23.83
2019-04-07T09:05:48.291Z,22.07
2019-04-07T09:08:19.304Z,21.80
2019-04-07T09:11:15.855Z,19.77
2019-04-07T09:13:51.723Z,21.60
2019-04-07T09:16:56.107Z,19.97
2019-04-07T09:19:46.867Z,17.73
2019-04-07T09:22:39.078Z,16.53
2019-04-07T09:25:28.307Z,19.20
2019-04-07T09:28:26.595Z,16.77
2019-04-07T09:31:22.446Z,21.57
2019-04-07T09:34:01.288Z,14.60
2019-04-07T09:36:51.586Z,18.00
2019-04-07T09:39:56.258Z,17.93
2019-04-07T09:42:30.791Z,15.70
2019-04-07T09:45:12.434Z,16.13
2019-04-07T09:48:10.885Z,15.90
2019-04-07T09:51:11.168Z,15.37
2019-04-07T09:54:00.798Z,17.90
2019-04-07T09:56:49.819Z,14.37
2019-04-07T09:59:46.674Z,11.43
2019-04-07T10:02:51.517Z,12.13
2019-04-07T10:05:45.331Z,16.07
2019-04-07T10:08:45.541Z,11.57
2019-04-07T10:11:34.807Z,12.37
2019-04-07T10:14:23.778Z,12.63
2019-04-07T10:17:03.746Z,11.83
2019-04-07T10:19:53.884Z,12.03
2019-04-07T10:22:47.283Z,12.15
2019-04-07T10:25:39.123Z,11.33
2019-04-07T10:28:30.087Z,11.57
2019-04-07T10:31:19.508Z,11.63
2019-04-07T10:34:12.380Z,10.38
2019-04-07T10:37:19.092Z,11.40
2019-04-07T10:40:21.955Z,10.75
2019-04-07T10:43:04.194Z,11.00
2019-04-07T10:45:46.518Z,11.12
2019-04-07T10:48:34.742Z,11.18
2019-04-07T10:51:39.714Z,11.28
2019-04-07T10:54:28.737Z,10.30
2019-04-07T10:57:18.873Z,11.73
2019-04-07T11:00:07.535Z,11.43
2019-04-07T11:02:57.603Z,11.23
2019-04-07T11:05:42.754Z,13.47
2019-04-07T11:08:37.825Z,15.63
2019-04-07T11:11:30.407Z,13.07
2019-04-07T11:14:35.072Z,14.63
2019-04-07T11:17:39.475Z,14.57
2019-04-07T11:20:14.917Z,12.47
2019-04-07T11:23:27.121Z,13.83
2019-04-07T11:26:13.806Z,15.13
2019-04-07T11:29:03.297Z,11.60
2019-04-07T11:31:41.801Z,12.63
2019-04-07T11:34:21.691Z,12.17
2019-04-07T11:37:11.012Z,11.40
2019-04-07T11:40:04.806Z,10.90
2019-04-07T11:42:57.826Z,13.00
2019-04-07T11:46:00.076Z,12.70
2019-04-07T11:48:53.582Z,12.33
2019-04-07T11:51:46.758Z,12.30
2019-04-07T11:54:45.716Z,12.63
2019-04-07T11:58:00.667Z,11.57
2019-04-07T12:00:41.686Z,11.63
2019-04-07T12:03:32.203Z,13.60
2019-04-07T12:06:25.494Z,11.97
2019-04-07T12:09:15.181Z,11.43
2019-04-07T12:12:03.720Z,11.40
2019-04-07T12:15:09.480Z,12.88
2019-04-07T12:18:08.480Z,12.37
2019-04-07T12:20:51.804Z,13.80
2019-04-07T12:23:52.071Z,12.28
2019-04-07T12:26:38.041Z,13.18
2019-04-07T12:29:18.746Z,15.18
2019-04-07T12:32:07.387Z,12.58
2019-04-07T12:34:55.075Z,11.05
2019-04-07T12:37:43.728Z,11.40
2019-04-07T12:40:32.293Z,11.15
2019-04-07T12:43:18.590Z,10.78
2019-04-07T12:46:19.330Z,12.68
2019-04-07T12:49:09.672Z,10.03
2019-04-07T12:52:03.164Z,11.35
2019-04-07T12:54:43.677Z,17.57
2019-04-07T12:57:26.160Z,11.45
2019-04-07T13:00:22.717Z,10.18
2019-04-07T13:03:01.706Z,10.90
2019-04-07T13:05:48.744Z,11.95
2019-04-07T13:08:57.208Z,12.60
2019-04-07T13:11:50.506Z,12.10
2019-04-07T13:14:40.065Z,12.15
2019-04-07T13:17:37.780Z,13.70
2019-04-07T13:20:27.301Z,13.05
2019-04-07T13:23:12.292Z,11.12
2019-04-07T13:25:53.168Z,13.62
2019-04-07T13:28:46.141Z,13.68
2019-04-07T13:31:34.517Z,11.65
2019-04-07T13:34:31.170Z,12.45
2019-04-07T13:37:22.223Z,14.63
2019-04-07T13:40:19.851Z,15.18
2019-04-07T13:43:09.480Z,12.68
2019-04-07T13:46:17.162Z,16.37
2019-04-07T13:49:02.760Z,14.65
2019-04-07T13:54:42.256Z,12.18
2019-04-07T13:57:50.353Z,13.00
2019-04-07T14:00:40.585Z,13.57
2019-04-07T14:03:33.773Z,14.97
2019-04-07T14:06:14.666Z,13.97
2019-04-07T14:09:02.494Z,13.90
2019-04-07T14:12:06.245Z,13.53
2019-04-07T14:14:51.514Z,13.20
2019-04-07T14:17:48.140Z,14.50
2019-04-07T14:20:32.142Z,13.37
2019-04-07T14:23:29.787Z,14.10
2019-04-07T14:26:23.654Z,13.50
2019-04-07T14:29:19.532Z,13.97
2019-04-07T14:32:03.117Z,13.13
2019-04-07T14:34:53.010Z,16.07
2019-04-07T14:37:42.934Z,15.40
2019-04-07T14:40:30.092Z,14.67
2019-04-07T14:43:17.749Z,12.80
2019-04-07T14:45:53.257Z,12.73
2019-04-07T14:48:43.668Z,13.40
2019-04-07T14:51:36.430Z,15.93
2019-04-07T14:54:21.175Z,15.10
2019-04-07T14:56:59.510Z,15.97
2019-04-07T14:59:58.966Z,15.63
2019-04-07T15:02:30.263Z,16.20
2019-04-07T15:05:06.125Z,17.77
2019-04-07T15:07:48.391Z,17.50
2019-04-07T15:10:38.096Z,16.10
2019-04-07T15:13:16.036Z,14.07
2019-04-07T15:15:57.084Z,13.18
2019-04-07T15:18:25.632Z,14.13
2019-04-07T15:20:56.245Z,15.97
2019-04-07T15:23:29.579Z,13.63
2019-04-07T15:26:03.251Z,16.27
2019-04-07T15:28:38.380Z,13.10
2019-04-07T15:31:17.617Z,16.17
2019-04-07T15:33:48.067Z,13.13
2019-04-07T15:36:19.644Z,12.33
2019-04-07T15:38:50.897Z,12.80
2019-04-07T15:41:23.299Z,12.20
2019-04-07T15:43:55.176Z,13.27
2019-04-07T15:46:26.748Z,12.95
2019-04-07T15:48:58.261Z,12.50
2019-04-07T15:51:33.831Z,13.15
2019-04-07T15:54:01.242Z,18.65
2019-04-07T15:56:33.673Z,13.03
2019-04-07T15:59:04.960Z,12.85
2019-04-07T16:01:38.011Z,14.33
2019-04-07T16:04:10.214Z,14.20
2019-04-07T16:06:41.871Z,13.78
2019-04-07T16:09:28.380Z,12.95
2019-04-07T16:11:50.316Z,13.70
2019-04-07T16:14:23.082Z,13.45
2019-04-07T16:16:54.772Z,14.05
2019-04-07T16:19:37.579Z,15.08
2019-04-07T16:22:00.100Z,16.07
2019-04-07T16:24:31.168Z,12.88
2019-04-07T16:27:06.515Z,14.25
2019-04-07T16:29:37.127Z,15.40
2019-04-07T16:32:08.205Z,13.72
2019-04-07T16:34:41.126Z,13.15
2019-04-07T16:37:11.758Z,13.28
2019-04-07T16:39:42.670Z,14.05
2019-04-07T16:42:14.865Z,15.75
2019-04-07T16:44:46.123Z,15.13
2019-04-07T16:47:22.454Z,14.83
2019-04-07T16:49:50.279Z,14.63
2019-04-07T16:52:22.417Z,13.80
2019-04-07T16:54:54.718Z,14.73
2019-04-07T16:57:28.857Z,14.50
2019-04-07T17:00:01.554Z,14.97
2019-04-07T17:02:32.780Z,16.37
2019-04-07T17:05:06.759Z,13.97
2019-04-07T17:07:39.003Z,13.97
2019-04-07T17:10:11.210Z,15.00
2019-04-07T17:12:42.793Z,19.20
2019-04-07T17:15:14.482Z,14.50
2019-04-07T17:17:45.504Z,15.37
2019-04-07T17:20:18.973Z,14.27
2019-04-07T17:22:50.976Z,16.03
2019-04-07T17:25:22.808Z,15.50
2019-04-07T17:27:53.689Z,15.80
2019-04-07T17:30:28.955Z,14.53
2019-04-07T17:33:03.225Z,14.23
2019-04-07T17:35:35.537Z,17.43
2019-04-07T17:38:08.613Z,16.77
2019-04-07T17:40:47.437Z,15.63
2019-04-07T17:43:48.980Z,15.37
2019-04-07T17:46:32.610Z,15.40
2019-04-07T17:49:35.555Z,16.83
2019-04-07T17:52:29.100Z,17.73
2019-04-07T17:55:16.217Z,15.47
2019-04-07T17:58:03.133Z,17.73
2019-04-07T18:01:09.209Z,15.37
2019-04-07T18:04:11.347Z,16.17
2019-04-07T18:07:04.233Z,20.77
2019-04-07T18:10:00.745Z,19.20
2019-04-07T18:13:02.842Z,17.77
2019-04-07T18:15:54.351Z,16.30
2019-04-07T18:18:43.207Z,18.50
2019-04-07T18:21:25.168Z,28.87
2019-04-07T18:24:14.822Z,16.47
2019-04-07T18:26:52.153Z,17.07
2019-04-07T18:29:38.665Z,18.63
2019-04-07T18:32:22.591Z,20.73
2019-04-07T18:35:11.136Z,16.13
2019-04-07T18:38:10.309Z,18.23
2019-04-07T18:41:09.401Z,19.17
2019-04-07T18:44:07.730Z,15.30
2019-04-07T18:46:57.946Z,19.37
2019-04-07T18:49:48.407Z,18.40
2019-04-07T18:52:29.565Z,15.87
2019-04-07T18:55:27.292Z,18.13
2019-04-07T18:58:24.736Z,22.37
2019-04-07T19:01:24.382Z,31.23
2019-04-07T19:04:12.738Z,17.80
2019-04-07T19:07:02.235Z,20.20
2019-04-07T19:10:03.726Z,16.30
2019-04-07T19:12:43.193Z,18.63
2019-04-07T19:15:40.044Z,19.13
2019-04-07T19:18:33.059Z,20.53
2019-04-07T19:21:25.518Z,20.63
2019-04-07T19:24:10.061Z,18.83
2019-04-07T19:26:56.223Z,17.23
2019-04-07T19:29:43.493Z,18.23
2019-04-07T19:32:36.997Z,16.43
2019-04-07T19:35:37.577Z,15.43
2019-04-07T19:38:29.407Z,18.63
2019-04-07T19:41:13.263Z,17.37
2019-04-07T19:44:13.768Z,19.77
2019-04-07T19:47:00.012Z,19.47
2019-04-07T19:49:58.444Z,19.07
2019-04-07T19:52:38.481Z,17.60
2019-04-07T19:55:29.148Z,18.63
2019-04-07T19:58:11.937Z,20.17
2019-04-07T20:00:56.754Z,17.73
2019-04-07T20:03:52.700Z,16.50
2019-04-07T20:06:39.709Z,16.57
2019-04-07T20:09:39.506Z,17.67
2019-04-07T20:12:34.650Z,17.43
2019-04-07T20:15:24.009Z,17.07
2019-04-07T20:18:10.349Z,18.47
2019-04-07T20:21:08.279Z,18.40
2019-04-07T20:23:46.314Z,17.87
2019-04-07T20:26:38.900Z,16.93
2019-04-07T20:29:33.862Z,18.17
2019-04-07T20:32:25.159Z,21.00
2019-04-07T20:35:28.841Z,19.97
2019-04-07T20:38:09.297Z,20.30
2019-04-07T20:40:46.761Z,17.90
2019-04-07T20:43:40.510Z,19.13
2019-04-07T20:46:23.837Z,22.07
2019-04-07T20:49:17.982Z,22.10
2019-04-07T20:52:25.373Z,21.00
2019-04-07T20:55:21.290Z,19.63
2019-04-07T20:58:20.572Z,17.47
2019-04-07T21:01:04.891Z,22.40
2019-04-07T21:03:49.322Z,21.90
2019-04-07T21:06:52.288Z,18.80
2019-04-07T21:09:41.752Z,21.60
2019-04-07T21:12:45.495Z,19.43
2019-04-07T21:15:39.951Z,22.60
2019-04-07T21:18:34.000Z,20.53
2019-04-07T21:21:12.182Z,22.03
2019-04-07T21:23:50.932Z,21.13
2019-04-07T21:26:45.967Z,24.50
2019-04-07T21:29:32.684Z,22.13
2019-04-07T21:32:20.084Z,20.80
2019-04-07T21:35:10.886Z,21.40
2019-04-07T21:37:58.278Z,22.10
2019-04-07T21:40:56.624Z,22.37
2019-04-07T21:43:42.431Z,21.80
2019-04-07T21:46:32.609Z,22.90
2019-04-07T21:49:20.575Z,23.60
2019-04-07T21:52:06.677Z,21.83
2019-04-07T21:54:59.880Z,23.07
2019-04-07T21:57:43.740Z,25.10
2019-04-07T22:00:34.709Z,25.70
2019-04-07T22:03:26.899Z,23.13
2019-04-07T22:06:16.497Z,26.27
2019-04-07T22:08:53.750Z,25.07
2019-04-07T22:11:29.322Z,24.00
2019-04-07T22:14:04.150Z,26.90
2019-04-07T22:16:35.410Z,24.87
2019-04-07T22:19:10.940Z,26.27
2019-04-07T22:21:48.062Z,25.07
2019-04-07T22:24:19.474Z,24.27
2019-04-07T22:26:51.535Z,28.63
2019-04-07T22:29:24.488Z,27.47
2019-04-07T22:31:58.042Z,24.97
2019-04-07T22:34:32.470Z,30.03
2019-04-07T22:37:05.595Z,31.10
2019-04-07T22:39:39.690Z,24.53
2019-04-07T22:42:15.206Z,31.47
2019-04-07T22:44:45.434Z,27.77
2019-04-07T22:47:19.729Z,25.30
2019-04-07T22:49:52.685Z,26.27
2019-04-07T22:52:27.871Z,29.63
2019-04-07T22:55:04.217Z,27.30
2019-04-07T22:57:35.723Z,31.17
2019-04-07T23:00:10.807Z,27.37
2019-04-07T23:02:48.600Z,27.73
2019-04-07T23:05:23.394Z,31.07
2019-04-07T23:07:54.850Z,27.40
2019-04-07T23:10:27.405Z,31.33
2019-04-07T23:13:01.473Z,30.47
2019-04-07T23:15:40.988Z,31.77
2019-04-07T23:18:05.825Z,31.23
2019-04-07T23:20:39.605Z,32.97
2019-04-07T23:23:11.183Z,35.37
2019-04-07T23:25:42.727Z,32.70
2019-04-07T23:28:14.573Z,34.30
2019-04-07T23:30:47.125Z,30.77
2019-04-07T23:33:19.040Z,30.00
2019-04-07T23:35:50.281Z,34.63
2019-04-07T23:38:21.966Z,35.10
2019-04-07T23:40:53.524Z,33.83
2019-04-07T23:43:25.140Z,35.73
2019-04-07T23:46:02.266Z,31.67
2019-04-07T23:48:34.562Z,35.30
2019-04-07T23:51:07.779Z,33.23
2019-04-07T23:54:12.328Z,36.27
2019-04-07T23:56:44.762Z,34.00
2019-04-07T23:59:18.615Z,35.07
